createdAt,value
2018-10-01T00:01:31.993Z,29.60
2018-10-01T00:04:04.926Z,29.50
2018-10-01T00:06:37.246Z,29.60
2018-10-01T00:09:10.050Z,29.70
2018-10-01T00:11:41.061Z,29.50
2018-10-01T00:14:12.269Z,29.50
2018-10-01T00:16:43.337Z,29.50
2018-10-01T00:19:19.345Z,29.50
2018-10-01T00:21:54.971Z,29.60
2018-10-01T00:24:26.115Z,29.60
2018-10-01T00:26:57.978Z,29.60
2018-10-01T00:29:29.445Z,29.60
2018-10-01T00:32:00.880Z,29.50
2018-10-01T00:34:33.151Z,29.50
2018-10-01T00:37:05.126Z,29.50
2018-10-01T00:39:36.885Z,29.60
2018-10-01T00:42:08.183Z,29.50
2018-10-01T00:44:39.659Z,29.50
2018-10-01T00:47:11.641Z,29.40
2018-10-01T00:49:43.305Z,29.50
2018-10-01T00:52:14.750Z,29.40
2018-10-01T00:54:46.350Z,29.40
2018-10-01T00:57:17.719Z,29.40
2018-10-01T00:59:49.051Z,29.40
2018-10-01T01:02:21.078Z,29.40
2018-10-01T01:04:52.471Z,29.50
2018-10-01T01:07:23.735Z,29.50
2018-10-01T01:09:55.453Z,29.50
2018-10-01T01:12:26.963Z,29.50
2018-10-01T01:14:58.787Z,29.50
2018-10-01T01:17:30.500Z,29.50
2018-10-01T01:20:02.903Z,29.50
2018-10-01T01:22:34.244Z,29.50
2018-10-01T01:25:06.291Z,29.50
2018-10-01T01:27:37.893Z,29.50
2018-10-01T01:30:09.852Z,29.50
2018-10-01T01:32:41.539Z,29.40
2018-10-01T01:35:13.027Z,29.50
2018-10-01T01:37:44.135Z,29.50
2018-10-01T01:40:15.843Z,29.40
2018-10-01T01:42:47.130Z,29.50
2018-10-01T01:45:18.730Z,29.40
2018-10-01T01:47:50.179Z,29.40
2018-10-01T01:50:21.747Z,29.40
2018-10-01T01:52:53.158Z,29.40
2018-10-01T01:55:24.615Z,29.40
2018-10-01T01:57:56.005Z,29.40
2018-10-01T02:00:27.636Z,29.40
2018-10-01T02:02:59.100Z,29.40
2018-10-01T02:05:30.737Z,29.50
2018-10-01T02:08:02.513Z,29.40
2018-10-01T02:10:34.151Z,29.40
2018-10-01T02:13:05.466Z,29.40
2018-10-01T02:15:36.935Z,29.40
2018-10-01T02:18:08.335Z,29.40
2018-10-01T02:20:40.081Z,29.40
2018-10-01T02:23:11.230Z,29.40
2018-10-01T02:25:43.131Z,29.40
2018-10-01T02:28:14.379Z,29.40
2018-10-01T02:30:46.319Z,29.50
2018-10-01T02:33:17.755Z,29.40
2018-10-01T02:35:49.335Z,29.50
2018-10-01T02:38:21.071Z,29.50
2018-10-01T02:40:52.616Z,29.60
2018-10-01T02:43:24.183Z,29.60
2018-10-01T02:45:56.201Z,29.60
2018-10-01T02:48:27.447Z,29.70
2018-10-01T02:51:00.419Z,29.70
2018-10-01T02:53:36.627Z,29.70
2018-10-01T02:56:08.831Z,29.70
2018-10-01T02:58:41.529Z,29.70
2018-10-01T03:01:13.085Z,29.90
2018-10-01T03:03:45.727Z,30.00
2018-10-01T03:06:17.555Z,29.90
2018-10-01T03:08:48.690Z,30.10
2018-10-01T03:11:20.254Z,30.20
2018-10-01T03:13:51.243Z,30.30
2018-10-01T03:16:22.949Z,30.30
2018-10-01T03:18:54.420Z,30.50
2018-10-01T03:21:25.991Z,30.50
2018-10-01T03:23:57.426Z,30.40
2018-10-01T03:26:29.150Z,30.50
2018-10-01T03:29:00.476Z,30.40
2018-10-01T03:31:32.186Z,30.50
2018-10-01T03:34:03.767Z,30.50
2018-10-01T03:36:35.520Z,30.60
2018-10-01T03:39:08.697Z,30.70
2018-10-01T03:41:40.803Z,30.90
2018-10-01T03:44:12.144Z,31.00
2018-10-01T03:46:43.871Z,31.30
2018-10-01T03:49:15.241Z,31.40
2018-10-01T03:51:46.735Z,31.80
2018-10-01T03:54:18.130Z,32.30
2018-10-01T03:56:49.918Z,32.90
2018-10-01T03:59:21.122Z,33.10
2018-10-01T04:01:53.503Z,33.00
2018-10-01T04:04:26.282Z,32.90
2018-10-01T04:06:57.806Z,32.90
2018-10-01T04:09:29.070Z,32.90
2018-10-01T04:12:00.561Z,32.80
2018-10-01T04:14:31.934Z,32.80
2018-10-01T04:17:03.983Z,32.90
2018-10-01T04:19:35.434Z,33.00
2018-10-01T04:22:07.246Z,33.10
2018-10-01T04:24:38.467Z,33.20
2018-10-01T04:27:09.924Z,33.40
2018-10-01T04:29:41.326Z,33.70
2018-10-01T04:32:12.667Z,33.80
2018-10-01T04:34:43.943Z,34.00
2018-10-01T04:37:15.695Z,34.00
2018-10-01T04:39:47.068Z,34.30
2018-10-01T04:42:18.818Z,34.50
2018-10-01T04:44:50.075Z,34.70
2018-10-01T04:47:21.696Z,35.00
2018-10-01T04:49:53.183Z,36.40
2018-10-01T04:52:25.101Z,37.80
2018-10-01T04:54:56.477Z,38.90
2018-10-01T04:57:28.071Z,39.20
2018-10-01T04:59:59.366Z,39.00
2018-10-01T05:02:31.091Z,38.80
2018-10-01T05:05:04.694Z,38.30
2018-10-01T05:07:36.514Z,37.90
2018-10-01T05:10:08.962Z,37.80
2018-10-01T05:12:40.911Z,37.60
2018-10-01T05:15:12.414Z,37.40
2018-10-01T05:17:44.116Z,37.20
2018-10-01T05:20:15.086Z,37.10
2018-10-01T05:22:46.379Z,37.40
2018-10-01T05:25:17.472Z,38.40
2018-10-01T05:27:49.219Z,39.40
2018-10-01T05:30:20.583Z,40.50
2018-10-01T05:32:52.144Z,41.30
2018-10-01T05:35:23.496Z,41.60
2018-10-01T05:37:55.405Z,41.40
2018-10-01T05:40:26.787Z,41.00
2018-10-01T05:42:58.063Z,40.50
2018-10-01T05:45:29.095Z,39.70
2018-10-01T05:48:00.859Z,39.60
2018-10-01T05:50:31.943Z,39.70
2018-10-01T05:53:03.283Z,39.40
2018-10-01T05:55:34.218Z,39.10
2018-10-01T05:58:05.556Z,38.90
2018-10-01T06:00:36.797Z,38.60
2018-10-01T06:03:08.327Z,38.40
2018-10-01T06:05:40.238Z,38.30
2018-10-01T06:08:11.627Z,38.20
2018-10-01T06:10:42.603Z,38.10
2018-10-01T06:13:13.741Z,38.20
2018-10-01T06:15:45.091Z,38.20
2018-10-01T06:18:17.111Z,38.30
2018-10-01T06:20:48.503Z,38.40
2018-10-01T06:23:19.935Z,38.30
2018-10-01T06:25:51.024Z,38.60
2018-10-01T06:28:22.426Z,38.80
2018-10-01T06:30:53.392Z,38.70
2018-10-01T06:33:24.630Z,38.80
2018-10-01T06:35:55.679Z,38.80
2018-10-01T06:38:26.933Z,39.00
2018-10-01T06:40:57.938Z,39.10
2018-10-01T06:43:29.139Z,39.20
2018-10-01T06:46:00.047Z,39.40
2018-10-01T06:48:31.498Z,39.40
2018-10-01T06:51:02.490Z,39.60
2018-10-01T06:53:34.178Z,39.80
2018-10-01T06:56:05.187Z,40.50
2018-10-01T06:58:36.305Z,41.80
2018-10-01T07:01:07.576Z,43.10
2018-10-01T07:03:38.779Z,43.60
2018-10-01T07:06:10.539Z,44.40
2018-10-01T07:08:41.874Z,44.60
2018-10-01T07:11:14.581Z,44.20
2018-10-01T07:13:45.571Z,43.30
2018-10-01T07:16:16.674Z,42.10
2018-10-01T07:18:48.482Z,42.00
2018-10-01T07:21:19.383Z,41.20
2018-10-01T07:23:50.979Z,40.40
2018-10-01T07:26:22.049Z,40.50
2018-10-01T07:28:53.295Z,40.30
2018-10-01T07:31:24.364Z,40.10
2018-10-01T07:33:55.703Z,40.30
2018-10-01T07:36:26.719Z,39.90
2018-10-01T07:38:58.130Z,39.60
2018-10-01T07:41:29.972Z,39.30
2018-10-01T07:44:02.403Z,39.30
2018-10-01T07:46:34.103Z,39.50
2018-10-01T07:49:05.765Z,39.50
2018-10-01T07:51:37.226Z,39.30
2018-10-01T07:54:09.014Z,39.00
2018-10-01T07:56:40.406Z,39.20
2018-10-01T07:59:12.290Z,39.20
2018-10-01T08:01:43.387Z,38.90
2018-10-01T08:04:15.011Z,39.30
2018-10-01T08:06:48.215Z,39.00
2018-10-01T08:09:20.016Z,39.00
2018-10-01T08:11:51.410Z,39.00
2018-10-01T08:14:23.283Z,38.80
2018-10-01T08:16:54.523Z,39.10
2018-10-01T08:19:26.234Z,39.60
2018-10-01T08:21:57.807Z,40.60
2018-10-01T08:24:29.399Z,41.40
2018-10-01T08:27:00.650Z,42.10
2018-10-01T08:29:32.282Z,41.90
2018-10-01T08:32:04.455Z,40.80
2018-10-01T08:34:36.671Z,40.50
2018-10-01T08:37:07.880Z,39.80
2018-10-01T08:39:39.694Z,39.30
2018-10-01T08:42:10.828Z,38.80
2018-10-01T08:44:42.508Z,38.70
2018-10-01T08:47:13.611Z,38.30
2018-10-01T08:49:52.901Z,38.60
2018-10-01T08:52:30.174Z,38.60
2018-10-01T08:55:02.656Z,38.60
2018-10-01T08:57:33.710Z,38.80
2018-10-01T09:00:05.489Z,38.60
2018-10-01T09:02:36.630Z,38.70
2018-10-01T09:05:08.285Z,38.90
2018-10-01T09:07:41.697Z,38.70
2018-10-01T09:10:15.790Z,38.60
2018-10-01T09:12:46.796Z,38.80
2018-10-01T09:15:19.079Z,38.90
2018-10-01T09:17:50.179Z,38.60
2018-10-01T09:20:21.461Z,38.60
2018-10-01T09:22:53.651Z,38.50
2018-10-01T09:25:24.895Z,38.40
2018-10-01T09:27:55.988Z,38.40
2018-10-01T09:30:27.414Z,38.40
2018-10-01T09:32:58.587Z,38.50
2018-10-01T09:35:30.090Z,38.40
2018-10-01T09:38:01.252Z,38.40
2018-10-01T09:40:32.517Z,38.20
2018-10-01T09:43:04.428Z,38.30
2018-10-01T09:45:35.707Z,38.20
2018-10-01T09:48:09.239Z,38.10
2018-10-01T09:50:40.674Z,38.10
2018-10-01T09:53:11.903Z,38.00
2018-10-01T09:55:43.276Z,38.00
2018-10-01T09:58:15.086Z,38.00
2018-10-01T10:00:51.014Z,37.90
2018-10-01T10:03:23.035Z,38.00
2018-10-01T10:05:54.253Z,38.10
2018-10-01T10:08:27.043Z,38.00
2018-10-01T10:10:58.482Z,37.70
2018-10-01T10:13:29.743Z,37.70
2018-10-01T10:16:01.033Z,37.70
2018-10-01T10:18:32.061Z,37.80
2018-10-01T10:21:04.256Z,37.80
2018-10-01T10:23:35.870Z,37.80
2018-10-01T10:26:07.439Z,37.70
2018-10-01T10:28:38.747Z,37.60
2018-10-01T10:31:10.186Z,37.60
2018-10-01T10:33:41.250Z,37.50
2018-10-01T10:36:13.046Z,37.50
2018-10-01T10:38:43.980Z,37.50
2018-10-01T10:41:15.842Z,37.50
2018-10-01T10:43:46.923Z,37.50
2018-10-01T10:46:17.877Z,37.20
2018-10-01T10:48:48.866Z,37.20
2018-10-01T10:51:20.277Z,37.30
2018-10-01T10:53:52.069Z,37.30
2018-10-01T10:56:23.351Z,37.00
2018-10-01T10:58:54.451Z,37.10
2018-10-01T11:01:26.414Z,37.00
2018-10-01T11:03:57.580Z,37.10
2018-10-01T11:06:29.038Z,37.10
2018-10-01T11:09:02.005Z,37.00
2018-10-01T11:11:33.483Z,36.90
2018-10-01T11:14:05.348Z,37.00
2018-10-01T11:16:36.751Z,36.90
2018-10-01T11:19:07.845Z,37.00
2018-10-01T11:21:39.668Z,36.90
2018-10-01T11:24:10.695Z,37.00
2018-10-01T11:26:42.011Z,36.70
2018-10-01T11:29:13.249Z,36.60
2018-10-01T11:31:45.060Z,36.60
2018-10-01T11:34:16.114Z,36.40
2018-10-01T11:36:47.287Z,36.20
2018-10-01T11:39:18.705Z,36.40
2018-10-01T11:41:50.246Z,36.50
2018-10-01T11:44:21.387Z,36.40
2018-10-01T11:46:52.947Z,36.30
2018-10-01T11:49:24.357Z,36.30
2018-10-01T11:51:56.078Z,36.20
2018-10-01T11:54:28.512Z,36.10
2018-10-01T11:57:00.069Z,36.20
2018-10-01T11:59:31.991Z,36.10
2018-10-01T12:02:06.239Z,35.90
2018-10-01T12:04:37.383Z,36.00
2018-10-01T12:07:09.351Z,36.00
2018-10-01T12:09:40.976Z,36.10
2018-10-01T12:12:14.016Z,36.10
2018-10-01T12:14:45.014Z,35.90
2018-10-01T12:17:16.775Z,35.80
2018-10-01T12:19:48.486Z,35.70
2018-10-01T12:22:20.480Z,35.80
2018-10-01T12:24:51.503Z,35.80
2018-10-01T12:27:23.584Z,35.70
2018-10-01T12:29:54.836Z,35.70
2018-10-01T12:32:26.682Z,35.60
2018-10-01T12:34:57.700Z,35.60
2018-10-01T12:37:29.512Z,35.60
2018-10-01T12:40:06.382Z,35.70
2018-10-01T12:42:40.732Z,35.70
2018-10-01T12:45:11.784Z,35.60
2018-10-01T12:47:42.897Z,35.50
2018-10-01T12:50:13.761Z,35.40
2018-10-01T12:52:45.050Z,35.40
2018-10-01T12:55:19.744Z,35.40
2018-10-01T12:57:51.055Z,35.30
2018-10-01T13:00:21.979Z,35.20
2018-10-01T13:02:53.195Z,35.20
2018-10-01T13:05:24.226Z,35.20
2018-10-01T13:07:56.259Z,35.10
2018-10-01T13:10:29.625Z,35.00
2018-10-01T13:13:01.031Z,35.00
2018-10-01T13:15:32.012Z,34.90
2018-10-01T13:18:03.227Z,34.90
2018-10-01T13:20:34.331Z,34.80
2018-10-01T13:23:05.634Z,34.70
2018-10-01T13:25:36.723Z,34.80
2018-10-01T13:28:15.866Z,34.70
2018-10-01T13:30:47.071Z,34.70
2018-10-01T13:33:18.598Z,34.70
2018-10-01T13:35:49.812Z,34.60
2018-10-01T13:38:21.252Z,34.50
2018-10-01T13:40:52.318Z,34.50
2018-10-01T13:43:23.542Z,34.50
2018-10-01T13:45:54.829Z,34.50
2018-10-01T13:48:26.375Z,34.50
2018-10-01T13:50:57.356Z,34.50
2018-10-01T13:53:28.763Z,34.40
2018-10-01T13:55:59.955Z,34.40
2018-10-01T13:58:31.395Z,34.40
2018-10-01T14:01:04.501Z,34.30
2018-10-01T14:03:36.038Z,34.30
2018-10-01T14:06:08.845Z,34.30
2018-10-01T14:08:40.262Z,34.10
2018-10-01T14:11:20.193Z,34.20
2018-10-01T14:13:51.881Z,34.20
2018-10-01T14:16:22.974Z,34.10
2018-10-01T14:18:54.455Z,34.10
2018-10-01T14:21:26.328Z,34.10
2018-10-01T14:23:57.715Z,34.10
2018-10-01T14:26:28.866Z,34.10
2018-10-01T14:29:00.190Z,34.00
2018-10-01T14:31:31.063Z,34.00
2018-10-01T14:34:04.958Z,34.00
2018-10-01T14:36:36.006Z,34.00
2018-10-01T14:39:09.983Z,34.00
2018-10-01T14:41:40.972Z,34.00
2018-10-01T14:44:15.232Z,33.90
2018-10-01T14:46:47.298Z,33.90
2018-10-01T14:49:18.363Z,33.90
2018-10-01T14:51:49.431Z,33.90
2018-10-01T14:54:21.887Z,33.90
2018-10-01T14:56:56.886Z,33.80
2018-10-01T14:59:28.258Z,33.80
2018-10-01T15:01:59.340Z,33.80
2018-10-01T15:04:33.160Z,33.70
2018-10-01T15:07:04.279Z,33.70
2018-10-01T15:09:35.672Z,33.70
2018-10-01T15:12:07.596Z,33.70
2018-10-01T15:14:39.034Z,33.70
2018-10-01T15:17:10.091Z,33.70
2018-10-01T15:19:42.543Z,33.70
2018-10-01T15:22:13.913Z,33.70
2018-10-01T15:24:45.594Z,33.70
2018-10-01T15:27:17.535Z,33.60
2018-10-01T15:29:48.988Z,33.70
2018-10-01T15:32:24.656Z,33.60
2018-10-01T15:34:55.786Z,33.50
2018-10-01T15:37:27.827Z,33.50
2018-10-01T15:39:59.483Z,33.50
2018-10-01T15:42:30.381Z,33.50
2018-10-01T15:45:01.762Z,33.50
2018-10-01T15:47:32.706Z,33.40
2018-10-01T15:50:04.087Z,33.40
2018-10-01T15:52:35.699Z,33.30
2018-10-01T15:55:07.830Z,33.40
2018-10-01T15:57:38.871Z,33.30
2018-10-01T16:00:10.460Z,33.30
2018-10-01T16:02:41.603Z,33.30
2018-10-01T16:05:12.596Z,33.30
2018-10-01T16:07:43.567Z,33.30
2018-10-01T16:10:15.742Z,33.20
2018-10-01T16:12:47.657Z,33.20
2018-10-01T16:15:18.918Z,33.20
2018-10-01T16:17:49.972Z,33.20
2018-10-01T16:20:22.311Z,33.10
2018-10-01T16:22:53.528Z,33.20
2018-10-01T16:25:25.412Z,33.10
2018-10-01T16:27:56.398Z,33.10
2018-10-01T16:30:27.614Z,33.10
2018-10-01T16:32:58.651Z,33.10
2018-10-01T16:35:30.012Z,33.00
2018-10-01T16:38:01.046Z,33.00
2018-10-01T16:40:39.071Z,33.00
2018-10-01T16:43:10.085Z,33.00
2018-10-01T16:45:42.217Z,32.90
2018-10-01T16:48:14.176Z,32.90
2018-10-01T16:50:45.866Z,32.80
2018-10-01T16:53:18.561Z,32.90
2018-10-01T16:55:55.795Z,32.90
2018-10-01T16:58:26.739Z,32.90
2018-10-01T17:00:59.558Z,33.00
2018-10-01T17:03:31.610Z,32.90
2018-10-01T17:06:03.511Z,32.90
2018-10-01T17:08:34.554Z,32.90
2018-10-01T17:11:06.791Z,32.90
2018-10-01T17:13:41.001Z,32.90
2018-10-01T17:16:14.635Z,32.90
2018-10-01T17:18:46.135Z,33.00
2018-10-01T17:21:17.829Z,33.10
2018-10-01T17:23:49.166Z,33.10
2018-10-01T17:26:20.772Z,33.20
2018-10-01T17:28:52.267Z,33.10
2018-10-01T17:31:24.384Z,33.20
2018-10-01T17:33:55.759Z,33.20
2018-10-01T17:36:27.422Z,33.20
2018-10-01T17:38:58.896Z,33.10
2018-10-01T17:41:38.989Z,33.00
2018-10-01T17:44:16.351Z,33.00
2018-10-01T17:46:50.089Z,33.00
2018-10-01T17:49:23.932Z,32.90
2018-10-01T17:52:00.415Z,33.00
2018-10-01T17:54:34.094Z,33.00
2018-10-01T17:57:06.605Z,32.90
2018-10-01T17:59:42.839Z,32.80
2018-10-01T18:02:14.873Z,32.90
2018-10-01T18:04:46.300Z,32.90
2018-10-01T18:07:31.865Z,32.80
2018-10-01T18:10:03.697Z,32.80
2018-10-01T18:12:35.113Z,32.80
2018-10-01T18:15:08.187Z,32.80
2018-10-01T18:17:39.871Z,32.70
2018-10-01T18:20:11.340Z,32.70
2018-10-01T18:22:42.866Z,32.70
2018-10-01T18:25:14.075Z,32.60
2018-10-01T18:27:45.932Z,32.70
2018-10-01T18:30:17.699Z,32.70
2018-10-01T18:32:49.854Z,32.60
2018-10-01T18:35:21.197Z,32.60
2018-10-01T18:37:53.057Z,32.60
2018-10-01T18:40:24.734Z,32.60
2018-10-01T18:42:56.477Z,32.60
2018-10-01T18:45:27.951Z,32.60
2018-10-01T18:47:59.711Z,32.50
2018-10-01T18:50:32.344Z,32.60
2018-10-01T18:53:04.410Z,32.50
2018-10-01T18:55:35.722Z,32.50
2018-10-01T18:58:07.993Z,32.50
2018-10-01T19:00:38.934Z,32.40
2018-10-01T19:03:10.249Z,32.40
2018-10-01T19:05:41.751Z,32.40
2018-10-01T19:08:13.777Z,32.40
2018-10-01T19:10:45.427Z,32.40
2018-10-01T19:13:17.020Z,32.40
2018-10-01T19:15:49.298Z,32.30
2018-10-01T19:18:20.552Z,32.30
2018-10-01T19:20:51.620Z,32.30
2018-10-01T19:23:23.229Z,32.20
2018-10-01T19:25:54.383Z,32.20
2018-10-01T19:28:25.707Z,32.20
2018-10-01T19:30:56.646Z,32.20
2018-10-01T19:33:27.928Z,32.20
2018-10-01T19:35:59.171Z,32.20
2018-10-01T19:38:30.264Z,32.20
2018-10-01T19:41:01.211Z,32.10
2018-10-01T19:43:32.804Z,32.10
2018-10-01T19:46:05.825Z,32.20
2018-10-01T19:48:37.066Z,32.20
2018-10-01T19:51:08.448Z,32.20
2018-10-01T19:53:40.364Z,32.20
2018-10-01T19:56:11.553Z,32.20
2018-10-01T19:58:43.492Z,32.20
2018-10-01T20:01:14.864Z,32.00
2018-10-01T20:03:45.992Z,31.90
2018-10-01T20:06:17.566Z,31.90
2018-10-01T20:08:49.130Z,32.00
2018-10-01T20:11:20.536Z,32.00
2018-10-01T20:13:52.176Z,31.90
2018-10-01T20:16:25.756Z,31.90
2018-10-01T20:18:57.601Z,31.90
2018-10-01T20:21:29.063Z,31.80
2018-10-01T20:24:00.741Z,31.80
2018-10-01T20:26:32.192Z,31.80
2018-10-01T20:29:04.105Z,31.70
2018-10-01T20:31:35.471Z,31.70
2018-10-01T20:34:07.524Z,31.60
2018-10-01T20:36:39.202Z,31.60
2018-10-01T20:39:11.585Z,31.60
2018-10-01T20:41:43.131Z,31.60
2018-10-01T20:44:14.897Z,31.60
2018-10-01T20:46:46.556Z,31.60
2018-10-01T20:49:18.741Z,31.50
2018-10-01T20:51:50.070Z,31.50
2018-10-01T20:54:21.620Z,31.50
2018-10-01T20:56:52.937Z,31.60
2018-10-01T20:59:24.800Z,31.50
2018-10-01T21:01:56.237Z,31.50
2018-10-01T21:04:28.381Z,31.40
2018-10-01T21:06:59.495Z,31.40
2018-10-01T21:09:31.248Z,31.40
2018-10-01T21:12:04.324Z,31.40
2018-10-01T21:14:36.097Z,31.40
2018-10-01T21:17:09.092Z,31.30
2018-10-01T21:19:41.277Z,31.30
2018-10-01T21:22:12.653Z,31.20
2018-10-01T21:24:44.090Z,31.30
2018-10-01T21:27:15.021Z,31.20
2018-10-01T21:29:46.178Z,31.30
2018-10-01T21:32:17.152Z,31.20
2018-10-01T21:34:48.724Z,31.20
2018-10-01T21:37:19.893Z,31.00
2018-10-01T21:40:11.201Z,31.00
2018-10-01T21:42:42.137Z,31.00
2018-10-01T21:45:14.797Z,31.00
2018-10-01T21:47:45.797Z,31.00
2018-10-01T21:50:17.216Z,31.00
2018-10-01T21:52:48.172Z,31.00
2018-10-01T21:55:19.393Z,31.00
2018-10-01T21:57:50.480Z,30.90
2018-10-01T22:00:21.848Z,30.90
2018-10-01T22:02:53.203Z,31.00
2018-10-01T22:05:24.468Z,30.90
2018-10-01T22:07:55.806Z,30.90
2018-10-01T22:10:27.313Z,30.90
2018-10-01T22:12:58.558Z,30.80
2018-10-01T22:15:35.219Z,30.80
2018-10-01T22:18:08.007Z,30.60
2018-10-01T22:20:39.765Z,30.60
2018-10-01T22:23:11.359Z,30.70
2018-10-01T22:25:42.904Z,30.60
2018-10-01T22:28:14.163Z,30.60
2018-10-01T22:30:46.007Z,30.60
2018-10-01T22:33:17.283Z,30.50
2018-10-01T22:35:49.012Z,30.50
2018-10-01T22:38:20.418Z,30.60
2018-10-01T22:40:52.408Z,30.50
2018-10-01T22:43:23.767Z,30.50
2018-10-01T22:45:55.755Z,30.50
2018-10-01T22:48:26.767Z,30.40
2018-10-01T22:50:58.260Z,30.50
2018-10-01T22:53:29.267Z,30.50
2018-10-01T22:56:00.558Z,30.50
2018-10-01T22:58:31.531Z,30.50
2018-10-01T23:01:02.879Z,30.50
2018-10-01T23:03:33.899Z,30.50
2018-10-01T23:06:05.912Z,30.50
2018-10-01T23:08:36.861Z,30.50
2018-10-01T23:11:08.172Z,30.40
2018-10-01T23:13:39.191Z,30.50
2018-10-01T23:16:10.531Z,30.40
2018-10-01T23:18:43.427Z,30.40
2018-10-01T23:21:15.117Z,30.40
2018-10-01T23:23:46.332Z,30.50
2018-10-01T23:26:18.019Z,30.40
2018-10-01T23:28:49.652Z,30.40
2018-10-01T23:31:21.097Z,30.40
2018-10-01T23:33:52.461Z,30.30
2018-10-01T23:36:23.896Z,30.20
2018-10-01T23:38:55.256Z,30.20
2018-10-01T23:41:26.600Z,30.20
2018-10-01T23:43:57.840Z,30.20
2018-10-01T23:46:29.275Z,30.30
2018-10-01T23:49:00.267Z,30.20
2018-10-01T23:51:31.456Z,30.20
2018-10-01T23:54:02.478Z,30.20
2018-10-01T23:56:33.898Z,30.20
2018-10-01T23:59:05.135Z,30.20
